Milwaukee, Wisconsin
Traffic Map
Current Weather Conditions
Milwaukee, Wisconsin
Broken Clouds
Broken Clouds

Feels Like: 5°
Wind Chill: Ceiling: 20000
Heat Index: Visibility: 10mi
Dew Point: Wind: 13mph
Humidity: 61% Direction: 130° (SE)
Pressure: 30.34in Gusts: 0mph
Raw Report DataKMKE 191852Z 13011KT 10SM BKN200 08/01 A3034 RMK AO2 SLP282 T00830011
Traffic Incident Summary
Active as of:
Severity:
Category:
InformationThere was an issue retrieving the traffic information for this location. Please try a different location or try again shortly.
Advertisements
At Last! Intellicast now available for iPhone and Android